Time;durP1;ratioP1;P1;durP2;ratioP2;P2;SDS_P1;SDS_P2;PMS_P1;PMS_P2;Temp;Humidity;BMP_temperature;BMP_pressure;BME280_temperature;BME280_humidity;BME280_pressure;Samples;Min_cycle;Max_cycle;Signal;HPM_P1;HPM_P2
2022/12/16 00:00:23;;;;;;;53.10;24.23;;;-1.20;99.90;;;;;;5015202;28;20388;-75
2022/12/16 00:02:50;;;;;;;51.00;24.13;;;-1.20;99.90;;;;;;5014889;28;20856;-75
2022/12/16 00:05:16;;;;;;;44.43;24.93;;;-1.20;99.90;;;;;;5015345;28;20885;-75
2022/12/16 00:07:41;;;;;;;44.47;24.33;;;-1.30;99.90;;;;;;5015285;28;20428;-75
2022/12/16 00:10:07;;;;;;;46.80;23.90;;;-1.30;99.90;;;;;;5015149;28;20392;-75
2022/12/16 00:12:33;;;;;;;47.13;24.90;;;-1.30;99.90;;;;;;5014955;28;20207;-75
2022/12/16 00:14:59;;;;;;;53.23;25.43;;;-1.30;99.90;;;;;;5030317;28;20399;-75
2022/12/16 00:17:24;;;;;;;39.93;21.93;;;-1.30;99.90;;;;;;5015174;28;20171;-76
2022/12/16 00:19:50;;;;;;;53.50;24.93;;;-1.30;99.90;;;;;;5014764;28;20184;-75
2022/12/16 00:22:16;;;;;;;45.50;23.20;;;-1.30;99.90;;;;;;5014580;28;20306;-75
2022/12/16 00:24:41;;;;;;;51.00;23.33;;;-1.30;99.90;;;;;;5014897;28;20171;-75
2022/12/16 00:27:07;;;;;;;48.00;23.90;;;-1.30;99.90;;;;;;5014763;28;20259;-75
2022/12/16 00:29:32;;;;;;;46.70;25.30;;;-1.30;99.90;;;;;;5014612;28;20197;-76
2022/12/16 00:31:58;;;;;;;51.90;23.40;;;-1.40;99.90;;;;;;5014200;28;20225;-75
2022/12/16 00:34:23;;;;;;;45.20;23.40;;;-1.30;99.90;;;;;;5014459;28;20679;-74
2022/12/16 00:36:49;;;;;;;52.30;25.53;;;-1.40;99.90;;;;;;5014711;28;20639;-75
2022/12/16 00:39:14;;;;;;;56.10;24.50;;;-1.40;99.90;;;;;;5014314;28;20170;-75
2022/12/16 00:41:40;;;;;;;50.20;25.90;;;-1.40;99.90;;;;;;5014398;28;20194;-75
2022/12/16 00:44:05;;;;;;;54.40;25.83;;;-1.40;99.90;;;;;;5014709;28;21161;-75
2022/12/16 00:46:31;;;;;;;51.30;24.97;;;-1.50;99.90;;;;;;5014464;28;20206;-75
2022/12/16 00:48:57;;;;;;;50.27;24.10;;;-1.40;99.90;;;;;;5014293;28;20257;-75
2022/12/16 00:51:22;;;;;;;46.10;22.67;;;-1.40;99.90;;;;;;5014177;28;20206;-75
2022/12/16 00:53:48;;;;;;;49.83;25.07;;;-1.50;99.90;;;;;;5014778;28;20210;-75
2022/12/16 00:56:13;;;;;;;49.33;23.57;;;-1.50;99.90;;;;;;5013119;28;20176;-75
2022/12/16 00:58:39;;;;;;;44.43;22.37;;;-1.50;99.90;;;;;;5014522;28;20167;-75
2022/12/16 01:01:06;;;;;;;53.50;24.70;;;-1.50;99.90;;;;;;5013517;28;20187;-73
2022/12/16 01:03:32;;;;;;;48.23;24.37;;;-1.50;99.90;;;;;;5014172;28;20388;-75
2022/12/16 01:05:58;;;;;;;49.97;23.37;;;-1.50;99.90;;;;;;5013778;28;20395;-75
2022/12/16 01:08:23;;;;;;;39.80;23.60;;;-1.50;99.90;;;;;;5014158;28;20388;-75
2022/12/16 01:10:54;;;;;;;53.43;24.90;;;-1.50;99.90;;;;;;5013563;28;20171;-75
2022/12/16 01:13:21;;;;;;;41.50;21.60;;;-1.50;99.90;;;;;;5013957;28;20632;-76
2022/12/16 01:15:47;;;;;;;44.93;22.97;;;-1.40;99.90;;;;;;5013829;28;20381;-75
2022/12/16 01:18:13;;;;;;;43.10;21.10;;;-1.40;99.90;;;;;;5013648;28;20385;-75
2022/12/16 01:20:38;;;;;;;51.77;23.90;;;-1.50;99.90;;;;;;5013828;28;20258;-75
2022/12/16 01:23:04;;;;;;;43.87;22.20;;;-1.50;99.90;;;;;;5013529;28;20490;-75
2022/12/16 01:25:30;;;;;;;49.13;23.70;;;-1.50;99.90;;;;;;5013804;28;20655;-76
2022/12/16 01:27:56;;;;;;;50.13;22.27;;;-1.40;99.90;;;;;;5013428;28;20184;-75
2022/12/16 01:30:22;;;;;;;46.73;24.70;;;-1.40;99.90;;;;;;5013654;28;20389;-75
2022/12/16 01:32:48;;;;;;;45.57;22.53;;;-1.50;99.90;;;;;;5013124;28;20710;-75
2022/12/16 01:35:14;;;;;;;45.27;23.67;;;-1.50;99.90;;;;;;5013629;28;20385;-75
2022/12/16 01:37:39;;;;;;;43.80;23.63;;;-1.50;99.90;;;;;;5013468;28;20175;-75
2022/12/16 01:40:06;;;;;;;42.80;22.07;;;-1.50;99.90;;;;;;5013376;28;20177;-75
2022/12/16 01:42:32;;;;;;;42.57;22.50;;;-1.50;99.90;;;;;;5013282;28;20262;-75
2022/12/16 01:45:23;;;;;;;44.73;23.30;;;-1.50;99.90;;;;;;5013298;28;20468;-75
2022/12/16 01:47:51;;;;;;;46.97;24.00;;;-1.50;99.90;;;;;;5013320;28;20389;-75
2022/12/16 01:50:18;;;;;;;53.60;23.60;;;-1.50;99.90;;;;;;5013289;28;20391;-75
2022/12/16 01:52:50;;;;;;;42.87;23.03;;;-1.50;99.90;;;;;;5013146;28;20992;-75
2022/12/16 01:55:32;;;;;;;49.90;22.63;;;-1.60;99.90;;;;;;5013261;28;20799;-76
2022/12/16 01:58:24;;;;;;;45.60;24.37;;;-1.60;99.90;;;;;;5013050;28;20467;-75
2022/12/16 03:31:46;;;;;;;36.17;19.13;;;-1.40;99.90;;;;;;5819123;23;20976;-77
2022/12/16 03:34:24;;;;;;;37.47;19.63;;;-1.40;99.90;;;;;;5011013;28;20447;-78
2022/12/16 03:36:56;;;;;;;34.20;21.23;;;-1.40;99.90;;;;;;5011646;28;20464;-78
2022/12/16 03:39:22;;;;;;;43.10;19.47;;;-1.40;99.90;;;;;;5011899;28;20864;-75
2022/12/16 03:41:55;;;;;;;41.57;22.80;;;-1.40;99.90;;;;;;5011604;28;20552;-78
2022/12/16 03:44:22;;;;;;;41.83;21.70;;;-1.40;99.90;;;;;;5011896;28;20427;-77
2022/12/16 03:46:48;;;;;;;41.50;19.50;;;-1.40;99.90;;;;;;5012137;28;20556;-78
2022/12/16 03:49:13;;;;;;;38.00;20.73;;;-1.40;99.90;;;;;;5011874;28;20985;-76
2022/12/16 03:51:39;;;;;;;37.00;19.20;;;-1.40;99.90;;;;;;5011516;28;20293;-77
2022/12/16 03:54:04;;;;;;;37.07;19.60;;;-1.40;99.90;;;;;;5011644;28;20214;-77
2022/12/16 03:56:30;;;;;;;32.87;18.30;;;-1.40;99.90;;;;;;5011421;28;20178;-76
2022/12/16 03:58:55;;;;;;;35.90;18.30;;;-1.50;99.90;;;;;;5012201;28;20178;-76
2022/12/16 04:01:22;;;;;;;41.63;20.23;;;-1.50;99.90;;;;;;5012424;28;20195;-76
2022/12/16 04:03:47;;;;;;;39.00;19.20;;;-1.50;99.90;;;;;;4994459;28;20181;-76
2022/12/16 04:06:17;;;;;;;38.50;17.90;;;-1.50;99.90;;;;;;5012323;28;20977;-77
2022/12/16 04:08:46;;;;;;;36.80;17.83;;;-1.50;99.90;;;;;;5012246;28;20471;-76
2022/12/16 04:25:37;;;;;;;36.80;18.47;;;-1.60;99.90;;;;;;5011866;28;20806;-76
2022/12/16 04:28:03;;;;;;;31.20;17.37;;;-1.60;99.90;;;;;;5007671;28;20396;-77
2022/12/16 04:30:33;;;;;;;34.37;18.87;;;-1.50;99.90;;;;;;5012479;28;20421;-77
